sensor_id;sensor_type;location;lat;lon;timestamp;pressure;altitude;pressure_sealevel;temperature;humidity
80851;BME280;70268;50.292;6.666;2023-08-06T00:00:41;95377.84;;;19.48;63.16
80851;BME280;70268;50.292;6.666;2023-08-06T00:03:12;95374.81;;;19.58;63.24
80851;BME280;70268;50.292;6.666;2023-08-06T00:05:41;95384.09;;;19.61;62.79
80851;BME280;70268;50.292;6.666;2023-08-06T00:08:10;95377.44;;;19.58;62.73
80851;BME280;70268;50.292;6.666;2023-08-06T00:10:39;95389.13;;;19.62;63.22
80851;BME280;70268;50.292;6.666;2023-08-06T00:13:08;95388.53;;;19.60;63.01
80851;BME280;70268;50.292;6.666;2023-08-06T00:15:36;95386.31;;;19.64;63.14
80851;BME280;70268;50.292;6.666;2023-08-06T00:18:05;95378.44;;;19.70;63.11
80851;BME280;70268;50.292;6.666;2023-08-06T00:20:38;95375.22;;;19.55;63.69
80851;BME280;70268;50.292;6.666;2023-08-06T00:23:07;95375.22;;;19.55;62.73
80851;BME280;70268;50.292;6.666;2023-08-06T00:25:36;95372.59;;;19.68;62.85
80851;BME280;70268;50.292;6.666;2023-08-06T00:28:05;95381.88;;;19.71;62.82
80851;BME280;70268;50.292;6.666;2023-08-06T00:30:33;95369.16;;;19.54;63.64
80851;BME280;70268;50.292;6.666;2023-08-06T00:33:02;95361.50;;;19.46;63.54
80851;BME280;70268;50.292;6.666;2023-08-06T00:35:31;95356.47;;;19.45;63.45
80851;BME280;70268;50.292;6.666;2023-08-06T00:38:01;95357.88;;;19.54;63.65
80851;BME280;70268;50.292;6.666;2023-08-06T00:40:30;95353.44;;;19.61;63.51
80851;BME280;70268;50.292;6.666;2023-08-06T00:42:59;95353.25;;;19.63;62.96
80851;BME280;70268;50.292;6.666;2023-08-06T00:45:28;95350.41;;;19.57;63.45
80851;BME280;70268;50.292;6.666;2023-08-06T00:47:57;95352.63;;;19.61;62.84
80851;BME280;70268;50.292;6.666;2023-08-06T00:50:27;95346.19;;;19.50;63.73
80851;BME280;70268;50.292;6.666;2023-08-06T00:52:56;95347.59;;;19.46;63.91
80851;BME280;70268;50.292;6.666;2023-08-06T00:55:26;95343.75;;;19.62;63.25
80851;BME280;70268;50.292;6.666;2023-08-06T00:57:55;95338.09;;;19.65;62.77
80851;BME280;70268;50.292;6.666;2023-08-06T01:00:24;95338.09;;;19.65;63.29
80851;BME280;70268;50.292;6.666;2023-08-06T01:02:54;95338.50;;;19.62;63.39
80851;BME280;70268;50.292;6.666;2023-08-06T01:05:23;95341.13;;;19.28;63.93
80851;BME280;70268;50.292;6.666;2023-08-06T01:08:02;95341.13;;;19.48;63.83
80851;BME280;70268;50.292;6.666;2023-08-06T01:10:49;95332.06;;;19.57;63.13
80851;BME280;70268;50.292;6.666;2023-08-06T01:13:24;95336.88;;;19.61;63.37
80851;BME280;70268;50.292;6.666;2023-08-06T01:15:55;95335.88;;;19.62;63.38
80851;BME280;70268;50.292;6.666;2023-08-06T01:18:26;95328.22;;;19.60;63.24
80851;BME280;70268;50.292;6.666;2023-08-06T01:20:56;95332.47;;;19.61;63.13
80851;BME280;70268;50.292;6.666;2023-08-06T01:23:25;95331.25;;;19.57;63.15
80851;BME280;70268;50.292;6.666;2023-08-06T01:26:00;95317.94;;;19.59;63.59
80851;BME280;70268;50.292;6.666;2023-08-06T01:28:40;95329.03;;;19.61;63.23
80851;BME280;70268;50.292;6.666;2023-08-06T01:31:15;95321.78;;;19.49;63.96
80851;BME280;70268;50.292;6.666;2023-08-06T01:33:47;95323.41;;;19.50;63.59
80851;BME280;70268;50.292;6.666;2023-08-06T01:36:19;95326.22;;;19.55;63.48
80851;BME280;70268;50.292;6.666;2023-08-06T01:38:48;95323.19;;;19.59;63.47
80851;BME280;70268;50.292;6.666;2023-08-06T01:41:19;95323.97;;;19.59;63.13
80851;BME280;70268;50.292;6.666;2023-08-06T01:43:47;95319.34;;;19.61;63.38
80851;BME280;70268;50.292;6.666;2023-08-06T01:46:16;95313.69;;;19.57;63.28
80851;BME280;70268;50.292;6.666;2023-08-06T01:48:45;95315.31;;;19.45;63.90
80851;BME280;70268;50.292;6.666;2023-08-06T01:51:13;95307.06;;;19.55;63.22
80851;BME280;70268;50.292;6.666;2023-08-06T01:53:43;95305.84;;;19.57;63.79
80851;BME280;70268;50.292;6.666;2023-08-06T01:56:12;95311.69;;;19.53;63.00
80851;BME280;70268;50.292;6.666;2023-08-06T01:58:41;95306.25;;;19.54;63.33
80851;BME280;70268;50.292;6.666;2023-08-06T02:01:09;95310.69;;;19.41;64.52
80851;BME280;70268;50.292;6.666;2023-08-06T02:03:38;95297.78;;;19.46;63.82
80851;BME280;70268;50.292;6.666;2023-08-06T02:06:07;95297.75;;;19.59;63.53
80851;BME280;70268;50.292;6.666;2023-08-06T02:08:36;95291.13;;;19.50;63.46
80851;BME280;70268;50.292;6.666;2023-08-06T02:11:06;95293.34;;;19.53;63.65
80851;BME280;70268;50.292;6.666;2023-08-06T02:13:34;95298.59;;;19.33;63.73
80851;BME280;70268;50.292;6.666;2023-08-06T02:16:03;95292.75;;;19.44;63.95
80851;BME280;70268;50.292;6.666;2023-08-06T02:18:33;95285.28;;;19.48;63.88
80851;BME280;70268;50.292;6.666;2023-08-06T02:21:01;95285.09;;;19.49;63.58
80851;BME280;70268;50.292;6.666;2023-08-06T02:23:30;95279.44;;;19.26;64.80
80851;BME280;70268;50.292;6.666;2023-08-06T02:25:59;95285.88;;;19.36;64.00
80851;BME280;70268;50.292;6.666;2023-08-06T02:28:30;95275.78;;;19.47;64.26
80851;BME280;70268;50.292;6.666;2023-08-06T02:30:59;95271.38;;;19.41;63.82
80851;BME280;70268;50.292;6.666;2023-08-06T02:33:28;95271.78;;;19.44;63.82
80851;BME280;70268;50.292;6.666;2023-08-06T02:36:00;95263.50;;;19.47;63.63
80851;BME280;70268;50.292;6.666;2023-08-06T02:38:29;95267.94;;;19.33;64.25
80851;BME280;70268;50.292;6.666;2023-08-06T02:40:58;95259.69;;;19.43;64.22
80851;BME280;70268;50.292;6.666;2023-08-06T02:43:27;95263.94;;;19.17;64.21
80851;BME280;70268;50.292;6.666;2023-08-06T02:45:58;95259.28;;;19.46;64.08
80851;BME280;70268;50.292;6.666;2023-08-06T02:48:28;95264.72;;;19.38;63.52
80851;BME280;70268;50.292;6.666;2023-08-06T02:50:59;95262.91;;;19.32;64.59
80851;BME280;70268;50.292;6.666;2023-08-06T02:53:30;95264.34;;;19.41;63.62
80851;BME280;70268;50.292;6.666;2023-08-06T02:56:04;95265.94;;;19.42;64.24
80851;BME280;70268;50.292;6.666;2023-08-06T02:58:47;95262.28;;;19.36;64.05
80851;BME280;70268;50.292;6.666;2023-08-06T03:01:33;95262.72;;;19.27;64.58
80851;BME280;70268;50.292;6.666;2023-08-06T03:04:10;95254.66;;;19.42;64.32
80851;BME280;70268;50.292;6.666;2023-08-06T03:06:43;95256.25;;;19.43;63.73
80851;BME280;70268;50.292;6.666;2023-08-06T03:09:12;95248.38;;;19.36;63.99
80851;BME280;70268;50.292;6.666;2023-08-06T03:11:40;95251.44;;;19.39;63.77
80851;BME280;70268;50.292;6.666;2023-08-06T03:14:13;95254.44;;;19.43;63.64
80851;BME280;70268;50.292;6.666;2023-08-06T03:16:44;95249.00;;;19.45;64.23
80851;BME280;70268;50.292;6.666;2023-08-06T03:19:15;95252.22;;;19.40;63.88
80851;BME280;70268;50.292;6.666;2023-08-06T03:21:44;95244.34;;;19.47;63.87
80851;BME280;70268;50.292;6.666;2023-08-06T03:24:14;95235.69;;;19.39;63.95
80851;BME280;70268;50.292;6.666;2023-08-06T03:26:45;95241.34;;;19.43;64.39
80851;BME280;70268;50.292;6.666;2023-08-06T03:29:14;95241.13;;;19.45;64.50
80851;BME280;70268;50.292;6.666;2023-08-06T03:31:45;95234.06;;;19.45;64.36
80851;BME280;70268;50.292;6.666;2023-08-06T03:34:15;95232.09;;;19.14;64.86
80851;BME280;70268;50.292;6.666;2023-08-06T03:36:45;95233.84;;;19.47;64.36
80851;BME280;70268;50.292;6.666;2023-08-06T03:39:13;95238.31;;;19.46;63.31
80851;BME280;70268;50.292;6.666;2023-08-06T03:41:42;95233.66;;;19.48;63.76
80851;BME280;70268;50.292;6.666;2023-08-06T03:44:11;95227.59;;;19.48;63.79
80851;BME280;70268;50.292;6.666;2023-08-06T03:46:41;95228.81;;;19.45;64.22
80851;BME280;70268;50.292;6.666;2023-08-06T03:49:11;95221.38;;;19.49;64.02
80851;BME280;70268;50.292;6.666;2023-08-06T03:51:41;95225.59;;;19.36;64.64
80851;BME280;70268;50.292;6.666;2023-08-06T03:54:10;95229.22;;;19.42;64.70
80851;BME280;70268;50.292;6.666;2023-08-06T03:56:38;95228.03;;;19.45;64.32
80851;BME280;70268;50.292;6.666;2023-08-06T03:59:07;95235.09;;;19.44;64.47
80851;BME280;70268;50.292;6.666;2023-08-06T04:01:36;95226.44;;;19.37;63.77
80851;BME280;70268;50.292;6.666;2023-08-06T04:04:04;95228.63;;;19.47;63.81
80851;BME280;70268;50.292;6.666;2023-08-06T04:06:34;95234.69;;;19.41;63.91
80851;BME280;70268;50.292;6.666;2023-08-06T04:09:03;95242.34;;;19.42;64.06
80851;BME280;70268;50.292;6.666;2023-08-06T04:11:31;95230.22;;;19.48;63.89
80851;BME280;70268;50.292;6.666;2023-08-06T04:14:00;95243.75;;;19.45;64.32
80851;BME280;70268;50.292;6.666;2023-08-06T04:16:30;95235.50;;;19.41;64.01
80851;BME280;70268;50.292;6.666;2023-08-06T04:18:59;95242.13;;;19.50;63.78
80851;BME280;70268;50.292;6.666;2023-08-06T04:21:27;95231.25;;;19.40;63.91
80851;BME280;70268;50.292;6.666;2023-08-06T04:23:57;95236.47;;;19.47;63.96
80851;BME280;70268;50.292;6.666;2023-08-06T04:26:26;95232.44;;;19.51;63.97
80851;BME280;70268;50.292;6.666;2023-08-06T04:28:55;95242.75;;;19.46;63.98
80851;BME280;70268;50.292;6.666;2023-08-06T04:31:23;95237.91;;;19.43;64.39
80851;BME280;70268;50.292;6.666;2023-08-06T04:33:52;95236.28;;;19.48;63.88
80851;BME280;70268;50.292;6.666;2023-08-06T04:36:21;95241.91;;;19.45;64.32
80851;BME280;70268;50.292;6.666;2023-08-06T04:38:49;95242.13;;;19.44;63.85
80851;BME280;70268;50.292;6.666;2023-08-06T04:41:19;95239.72;;;19.42;64.49
80851;BME280;70268;50.292;6.666;2023-08-06T04:43:48;95238.50;;;19.45;64.28
80851;BME280;70268;50.292;6.666;2023-08-06T04:46:17;95239.50;;;19.44;64.48
80851;BME280;70268;50.292;6.666;2023-08-06T04:48:45;95239.13;;;19.40;64.47
80851;BME280;70268;50.292;6.666;2023-08-06T04:51:14;95242.13;;;19.44;64.54
80851;BME280;70268;50.292;6.666;2023-08-06T04:53:42;95237.28;;;19.41;63.95
80851;BME280;70268;50.292;6.666;2023-08-06T04:56:11;95246.97;;;19.40;64.44
80851;BME280;70268;50.292;6.666;2023-08-06T04:58:41;95254.44;;;19.43;64.48
80851;BME280;70268;50.292;6.666;2023-08-06T05:01:09;95256.47;;;19.41;64.33
80851;BME280;70268;50.292;6.666;2023-08-06T05:03:38;95255.44;;;19.49;64.22
80851;BME280;70268;50.292;6.666;2023-08-06T05:06:07;95254.84;;;19.53;63.97
80851;BME280;70268;50.292;6.666;2023-08-06T05:08:36;95259.06;;;19.48;64.46
80851;BME280;70268;50.292;6.666;2023-08-06T05:11:04;95255.44;;;19.55;64.25
80851;BME280;70268;50.292;6.666;2023-08-06T05:13:33;95261.25;;;19.57;64.04
80851;BME280;70268;50.292;6.666;2023-08-06T05:16:03;95257.44;;;19.47;64.23
80851;BME280;70268;50.292;6.666;2023-08-06T05:18:32;95262.50;;;19.55;64.22
80851;BME280;70268;50.292;6.666;2023-08-06T05:21:01;95262.91;;;19.52;63.72
80851;BME280;70268;50.292;6.666;2023-08-06T05:23:30;95273.56;;;19.57;63.86
80851;BME280;70268;50.292;6.666;2023-08-06T05:25:59;95269.34;;;19.56;64.03
80851;BME280;70268;50.292;6.666;2023-08-06T05:28:28;95272.16;;;19.61;64.33
80851;BME280;70268;50.292;6.666;2023-08-06T05:30:56;95271.34;;;19.61;63.79
80851;BME280;70268;50.292;6.666;2023-08-06T05:33:26;95274.38;;;19.57;63.97
80851;BME280;70268;50.292;6.666;2023-08-06T05:35:55;95268.13;;;19.59;64.38
80851;BME280;70268;50.292;6.666;2023-08-06T05:38:23;95272.16;;;19.61;63.92
80851;BME280;70268;50.292;6.666;2023-08-06T05:40:52;95276.41;;;19.55;64.14
80851;BME280;70268;50.292;6.666;2023-08-06T05:43:20;95272.56;;;19.58;64.34
80851;BME280;70268;50.292;6.666;2023-08-06T05:45:49;95277.63;;;19.60;63.79
80851;BME280;70268;50.292;6.666;2023-08-06T05:48:18;95275.38;;;19.50;63.98
80851;BME280;70268;50.292;6.666;2023-08-06T05:50:48;95275.78;;;19.60;64.35
80851;BME280;70268;50.292;6.666;2023-08-06T05:53:17;95273.97;;;19.61;63.97
80851;BME280;70268;50.292;6.666;2023-08-06T05:55:45;95267.53;;;19.50;64.11
80851;BME280;70268;50.292;6.666;2023-08-06T05:58:14;95272.56;;;19.58;64.24
80851;BME280;70268;50.292;6.666;2023-08-06T06:00:43;95269.13;;;19.64;64.42
80851;BME280;70268;50.292;6.666;2023-08-06T06:03:11;95270.94;;;19.57;64.55
80851;BME280;70268;50.292;6.666;2023-08-06T06:05:40;95278.41;;;19.60;63.89
80851;BME280;70268;50.292;6.666;2023-08-06T06:08:11;95276.59;;;19.61;64.17
80851;BME280;70268;50.292;6.666;2023-08-06T06:10:40;95270.34;;;19.55;64.40
80851;BME280;70268;50.292;6.666;2023-08-06T06:13:08;95273.19;;;19.53;64.53
80851;BME280;70268;50.292;6.666;2023-08-06T06:15:37;95269.34;;;19.49;64.52
80851;BME280;70268;50.292;6.666;2023-08-06T06:18:06;95269.94;;;19.51;64.01
80851;BME280;70268;50.292;6.666;2023-08-06T06:20:34;95282.28;;;19.44;64.23
80851;BME280;70268;50.292;6.666;2023-08-06T06:23:03;95275.63;;;19.42;64.18
80851;BME280;70268;50.292;6.666;2023-08-06T06:25:33;95280.25;;;19.46;64.01
80851;BME280;70268;50.292;6.666;2023-08-06T06:28:02;95286.09;;;19.42;64.33
80851;BME280;70268;50.292;6.666;2023-08-06T06:30:30;95282.84;;;19.53;64.27
80851;BME280;70268;50.292;6.666;2023-08-06T06:32:59;95290.91;;;19.51;64.10
80851;BME280;70268;50.292;6.666;2023-08-06T06:35:27;95293.75;;;19.50;64.39
80851;BME280;70268;50.292;6.666;2023-08-06T06:37:56;95295.16;;;19.52;64.24
80851;BME280;70268;50.292;6.666;2023-08-06T06:40:24;95302.22;;;19.52;63.78
80851;BME280;70268;50.292;6.666;2023-08-06T06:42:54;95298.97;;;19.50;64.52
80851;BME280;70268;50.292;6.666;2023-08-06T06:45:23;95300.41;;;19.46;64.73
80851;BME280;70268;50.292;6.666;2023-08-06T06:47:52;95298.97;;;19.50;64.50
80851;BME280;70268;50.292;6.666;2023-08-06T06:50:20;95299.22;;;19.42;64.73
80851;BME280;70268;50.292;6.666;2023-08-06T06:52:49;95295.19;;;19.46;64.54
80851;BME280;70268;50.292;6.666;2023-08-06T06:55:17;95297.38;;;19.49;63.92
80851;BME280;70268;50.292;6.666;2023-08-06T06:57:46;95293.75;;;19.50;64.25
80851;BME280;70268;50.292;6.666;2023-08-06T07:00:16;95296.56;;;19.48;64.31
80851;BME280;70268;50.292;6.666;2023-08-06T07:02:44;95302.63;;;19.55;64.23
80851;BME280;70268;50.292;6.666;2023-08-06T07:05:13;95296.38;;;19.56;64.00
80851;BME280;70268;50.292;6.666;2023-08-06T07:07:41;95312.09;;;19.50;64.51
80851;BME280;70268;50.292;6.666;2023-08-06T07:10:10;95306.66;;;19.51;64.81
80851;BME280;70268;50.292;6.666;2023-08-06T07:12:39;95312.91;;;19.50;64.32
80851;BME280;70268;50.292;6.666;2023-08-06T07:15:08;95325.00;;;19.51;64.03
80851;BME280;70268;50.292;6.666;2023-08-06T07:17:38;95323.00;;;19.53;64.27
80851;BME280;70268;50.292;6.666;2023-08-06T07:20:07;95327.03;;;19.49;64.37
80851;BME280;70268;50.292;6.666;2023-08-06T07:22:36;95331.66;;;19.54;64.77
80851;BME280;70268;50.292;6.666;2023-08-06T07:25:05;95332.06;;;19.51;64.25
80851;BME280;70268;50.292;6.666;2023-08-06T07:27:34;95332.88;;;19.51;64.19
80851;BME280;70268;50.292;6.666;2023-08-06T07:30:03;95342.56;;;19.51;64.83
80851;BME280;70268;50.292;6.666;2023-08-06T07:32:33;95341.34;;;19.53;64.75
80851;BME280;70268;50.292;6.666;2023-08-06T07:35:03;95348.59;;;19.58;64.33
80851;BME280;70268;50.292;6.666;2023-08-06T07:37:32;95352.03;;;19.59;64.17
80851;BME280;70268;50.292;6.666;2023-08-06T07:40:00;95358.47;;;19.69;63.83
80851;BME280;70268;50.292;6.666;2023-08-06T07:42:29;95362.91;;;19.75;63.85
80851;BME280;70268;50.292;6.666;2023-08-06T07:44:58;95364.94;;;19.73;64.31
80851;BME280;70268;50.292;6.666;2023-08-06T07:47:27;95366.13;;;19.71;63.81
80851;BME280;70268;50.292;6.666;2023-08-06T07:49:55;95362.72;;;19.70;64.40
80851;BME280;70268;50.292;6.666;2023-08-06T07:52:25;95359.28;;;19.77;64.04
80851;BME280;70268;50.292;6.666;2023-08-06T07:54:54;95366.56;;;19.74;63.74
80851;BME280;70268;50.292;6.666;2023-08-06T07:57:22;95362.09;;;19.68;63.87
80851;BME280;70268;50.292;6.666;2023-08-06T07:59:51;95362.31;;;19.73;63.94
80851;BME280;70268;50.292;6.666;2023-08-06T08:02:21;95367.94;;;19.77;64.25
80851;BME280;70268;50.292;6.666;2023-08-06T08:04:49;95358.06;;;19.72;64.11
80851;BME280;70268;50.292;6.666;2023-08-06T08:07:18;95366.16;;;19.64;63.49
80851;BME280;70268;50.292;6.666;2023-08-06T08:09:49;95378.84;;;19.61;63.90
80851;BME280;70268;50.292;6.666;2023-08-06T08:12:18;95382.06;;;19.56;63.56
80851;BME280;70268;50.292;6.666;2023-08-06T08:14:46;95391.38;;;19.52;63.53
80851;BME280;70268;50.292;6.666;2023-08-06T08:17:15;95400.22;;;19.51;63.26
80851;BME280;70268;50.292;6.666;2023-08-06T08:19:43;95408.69;;;19.53;63.44
80851;BME280;70268;50.292;6.666;2023-08-06T08:22:12;95403.84;;;19.50;62.99
80851;BME280;70268;50.292;6.666;2023-08-06T08:24:41;95402.25;;;19.49;62.89
80851;BME280;70268;50.292;6.666;2023-08-06T08:27:11;95410.53;;;19.46;62.97
80851;BME280;70268;50.292;6.666;2023-08-06T08:29:39;95424.63;;;19.45;62.86
80851;BME280;70268;50.292;6.666;2023-08-06T08:32:08;95433.28;;;19.45;63.04
80851;BME280;70268;50.292;6.666;2023-08-06T08:34:37;95432.50;;;19.45;62.74
80851;BME280;70268;50.292;6.666;2023-08-06T08:37:06;95433.88;;;19.41;62.65
80851;BME280;70268;50.292;6.666;2023-08-06T08:39:34;95430.28;;;19.42;62.66
80851;BME280;70268;50.292;6.666;2023-08-06T08:42:03;95440.94;;;19.40;62.57
80851;BME280;70268;50.292;6.666;2023-08-06T08:44:34;95442.97;;;19.45;62.35
80851;BME280;70268;50.292;6.666;2023-08-06T08:47:06;95450.03;;;19.51;62.43
80851;BME280;70268;50.292;6.666;2023-08-06T08:49:36;95444.00;;;19.64;62.38
80851;BME280;70268;50.292;6.666;2023-08-06T08:52:06;95446.41;;;19.52;62.41
80851;BME280;70268;50.292;6.666;2023-08-06T08:54:38;95447.03;;;19.54;63.32
80851;BME280;70268;50.292;6.666;2023-08-06T08:57:07;95451.88;;;19.64;63.22
80851;BME280;70268;50.292;6.666;2023-08-06T08:59:36;95459.53;;;19.59;63.12
80851;BME280;70268;50.292;6.666;2023-08-06T09:02:06;95455.50;;;19.49;63.23
80851;BME280;70268;50.292;6.666;2023-08-06T09:04:39;95465.97;;;19.49;63.53
80851;BME280;70268;50.292;6.666;2023-08-06T09:07:11;95469.78;;;19.47;64.21
80851;BME280;70268;50.292;6.666;2023-08-06T09:09:43;95480.91;;;19.55;64.20
80851;BME280;70268;50.292;6.666;2023-08-06T09:12:15;95477.88;;;19.52;64.04
80851;BME280;70268;50.292;6.666;2023-08-06T09:14:45;95487.94;;;19.48;64.83
80851;BME280;70268;50.292;6.666;2023-08-06T09:17:14;95489.56;;;19.43;63.84
80851;BME280;70268;50.292;6.666;2023-08-06T09:19:47;95494.38;;;19.32;63.62
80851;BME280;70268;50.292;6.666;2023-08-06T09:22:17;95502.38;;;19.24;63.47
80851;BME280;70268;50.292;6.666;2023-08-06T09:24:46;95521.56;;;19.25;63.40
80851;BME280;70268;50.292;6.666;2023-08-06T09:27:15;95517.72;;;19.27;63.47
80851;BME280;70268;50.292;6.666;2023-08-06T09:29:45;95521.38;;;19.26;63.18
80851;BME280;70268;50.292;6.666;2023-08-06T09:32:14;95528.41;;;19.26;63.25
80851;BME280;70268;50.292;6.666;2023-08-06T09:34:43;95539.66;;;19.19;63.82
80851;BME280;70268;50.292;6.666;2023-08-06T09:37:12;95539.06;;;19.24;64.63
80851;BME280;70268;50.292;6.666;2023-08-06T09:39:40;95534.03;;;19.23;63.74
80851;BME280;70268;50.292;6.666;2023-08-06T09:42:09;95541.69;;;19.24;63.87
80851;BME280;70268;50.292;6.666;2023-08-06T09:44:40;95541.09;;;19.22;63.81
80851;BME280;70268;50.292;6.666;2023-08-06T09:47:10;95538.47;;;19.22;63.68
80851;BME280;70268;50.292;6.666;2023-08-06T09:49:42;95551.56;;;19.15;63.62
80851;BME280;70268;50.292;6.666;2023-08-06T09:52:13;95548.16;;;19.21;63.54
80851;BME280;70268;50.292;6.666;2023-08-06T09:54:43;95554.19;;;19.22;63.62
80851;BME280;70268;50.292;6.666;2023-08-06T09:57:14;95560.25;;;19.23;63.24
80851;BME280;70268;50.292;6.666;2023-08-06T09:59:43;95563.41;;;19.11;62.81
80851;BME280;70268;50.292;6.666;2023-08-06T10:02:17;95558.00;;;19.13;63.12
80851;BME280;70268;50.292;6.666;2023-08-06T10:04:49;95570.09;;;19.14;62.14
80851;BME280;70268;50.292;6.666;2023-08-06T10:07:22;95571.09;;;19.13;61.77
80851;BME280;70268;50.292;6.666;2023-08-06T10:09:52;95576.66;;;19.03;62.27
80851;BME280;70268;50.292;6.666;2023-08-06T10:12:21;95574.78;;;18.97;61.91
80851;BME280;70268;50.292;6.666;2023-08-06T10:14:51;95575.25;;;19.00;61.87
80851;BME280;70268;50.292;6.666;2023-08-06T10:17:23;95583.59;;;19.11;61.34
80851;BME280;70268;50.292;6.666;2023-08-06T10:20:12;95580.50;;;19.00;61.41
80851;BME280;70268;50.292;6.666;2023-08-06T10:22:43;95593.81;;;19.06;61.60
80851;BME280;70268;50.292;6.666;2023-08-06T10:25:16;95593.78;;;18.99;61.35
80851;BME280;70268;50.292;6.666;2023-08-06T10:27:53;95596.41;;;18.99;61.51
80851;BME280;70268;50.292;6.666;2023-08-06T10:30:24;95604.44;;;18.97;61.24
80851;BME280;70268;50.292;6.666;2023-08-06T10:32:56;95600.38;;;18.95;61.28
80851;BME280;70268;50.292;6.666;2023-08-06T10:35:29;95607.84;;;18.98;61.38
80851;BME280;70268;50.292;6.666;2023-08-06T10:37:59;95614.91;;;18.97;61.50
80851;BME280;70268;50.292;6.666;2023-08-06T10:40:28;95618.16;;;18.99;63.04
80851;BME280;70268;50.292;6.666;2023-08-06T10:43:01;95621.28;;;19.16;63.67
80851;BME280;70268;50.292;6.666;2023-08-06T10:45:30;95621.97;;;19.32;63.37
80851;BME280;70268;50.292;6.666;2023-08-06T10:48:04;95628.44;;;19.29;63.24
80851;BME280;70268;50.292;6.666;2023-08-06T10:50:33;95635.84;;;19.26;62.85
80851;BME280;70268;50.292;6.666;2023-08-06T10:53:05;95637.28;;;19.28;62.58
80851;BME280;70268;50.292;6.666;2023-08-06T10:55:35;95633.22;;;19.26;62.21
80851;BME280;70268;50.292;6.666;2023-08-06T10:58:05;95632.06;;;19.35;62.72
80851;BME280;70268;50.292;6.666;2023-08-06T11:00:34;95642.41;;;19.43;62.46
80851;BME280;70268;50.292;6.666;2023-08-06T11:03:05;95640.00;;;19.48;61.59
80851;BME280;70268;50.292;6.666;2023-08-06T11:05:34;95643.84;;;19.46;61.59
80851;BME280;70268;50.292;6.666;2023-08-06T11:08:03;95642.66;;;19.55;61.27
80851;BME280;70268;50.292;6.666;2023-08-06T11:10:32;95651.13;;;19.57;61.31
80851;BME280;70268;50.292;6.666;2023-08-06T11:13:02;95649.72;;;19.54;61.45
80851;BME280;70268;50.292;6.666;2023-08-06T11:15:31;95648.31;;;19.59;60.80
80851;BME280;70268;50.292;6.666;2023-08-06T11:18:00;95656.78;;;19.61;61.11
80851;BME280;70268;50.292;6.666;2023-08-06T11:20:31;95661.06;;;19.68;60.51
80851;BME280;70268;50.292;6.666;2023-08-06T11:23:01;95658.09;;;19.78;60.59
80851;BME280;70268;50.292;6.666;2023-08-06T11:25:30;95668.19;;;19.74;60.53
80851;BME280;70268;50.292;6.666;2023-08-06T11:28:00;95663.53;;;19.83;59.76
80851;BME280;70268;50.292;6.666;2023-08-06T11:30:29;95662.72;;;19.76;59.87
80851;BME280;70268;50.292;6.666;2023-08-06T11:32:58;95665.97;;;19.85;59.64
80851;BME280;70268;50.292;6.666;2023-08-06T11:35:26;95668.19;;;19.88;59.88
80851;BME280;70268;50.292;6.666;2023-08-06T11:37:56;95667.81;;;19.91;59.73
80851;BME280;70268;50.292;6.666;2023-08-06T11:40:25;95678.09;;;19.92;59.74
80851;BME280;70268;50.292;6.666;2023-08-06T11:42:54;95675.13;;;19.96;60.00
80851;BME280;70268;50.292;6.666;2023-08-06T11:45:23;95674.31;;;19.95;59.46
80851;BME280;70268;50.292;6.666;2023-08-06T11:47:53;95688.03;;;19.97;59.77
80851;BME280;70268;50.292;6.666;2023-08-06T11:50:23;95693.09;;;19.99;60.02
80851;BME280;70268;50.292;6.666;2023-08-06T11:52:57;95693.03;;;19.92;60.27
80851;BME280;70268;50.292;6.666;2023-08-06T11:55:28;95699.78;;;20.01;59.52
80851;BME280;70268;50.292;6.666;2023-08-06T11:57:56;95695.38;;;20.15;59.27
80851;BME280;70268;50.292;6.666;2023-08-06T12:00:25;95704.69;;;20.24;59.10
80851;BME280;70268;50.292;6.666;2023-08-06T12:02:54;95698.00;;;20.15;59.00
80851;BME280;70268;50.292;6.666;2023-08-06T12:05:29;95704.63;;;19.98;59.94
80851;BME280;70268;50.292;6.666;2023-08-06T12:08:01;95706.59;;;19.96;59.75
80851;BME280;70268;50.292;6.666;2023-08-06T12:10:30;95713.31;;;20.05;59.82
80851;BME280;70268;50.292;6.666;2023-08-06T12:12:59;95708.88;;;20.05;59.06
80851;BME280;70268;50.292;6.666;2023-08-06T12:15:28;95698.56;;;20.04;59.46
80851;BME280;70268;50.292;6.666;2023-08-06T12:17:59;95710.50;;;20.13;59.59
80851;BME280;70268;50.292;6.666;2023-08-06T12:20:28;95708.53;;;20.22;59.15
80851;BME280;70268;50.292;6.666;2023-08-06T12:22:57;95713.13;;;20.06;59.33
80851;BME280;70268;50.292;6.666;2023-08-06T12:25:27;95707.09;;;20.19;59.37
80851;BME280;70268;50.292;6.666;2023-08-06T12:27:56;95720.59;;;20.09;59.38
80851;BME280;70268;50.292;6.666;2023-08-06T12:30:25;95728.75;;;20.28;59.07
80851;BME280;70268;50.292;6.666;2023-08-06T12:32:54;95725.09;;;20.29;58.98
80851;BME280;70268;50.292;6.666;2023-08-06T12:35:23;95719.28;;;20.40;58.79
80851;BME280;70268;50.292;6.666;2023-08-06T12:37:52;95725.94;;;20.43;58.81
80851;BME280;70268;50.292;6.666;2023-08-06T12:40:21;95718.25;;;20.35;58.61
80851;BME280;70268;50.292;6.666;2023-08-06T12:43:04;95728.53;;;20.36;58.84
80851;BME280;70268;50.292;6.666;2023-08-06T12:45:33;95720.28;;;20.33;58.57
80851;BME280;70268;50.292;6.666;2023-08-06T12:48:02;95727.31;;;20.25;58.81
80851;BME280;70268;50.292;6.666;2023-08-06T12:50:31;95735.97;;;20.19;59.30
80851;BME280;70268;50.292;6.666;2023-08-06T12:53:00;95729.34;;;20.30;58.67
80851;BME280;70268;50.292;6.666;2023-08-06T12:55:29;95740.63;;;20.31;58.47
80851;BME280;70268;50.292;6.666;2023-08-06T12:58:00;95739.25;;;20.28;58.66
80851;BME280;70268;50.292;6.666;2023-08-06T13:00:30;95750.72;;;20.20;59.02
80851;BME280;70268;50.292;6.666;2023-08-06T13:02:58;95739.44;;;20.26;58.94
80851;BME280;70268;50.292;6.666;2023-08-06T13:05:27;95752.75;;;20.32;58.53
80851;BME280;70268;50.292;6.666;2023-08-06T13:07:56;95751.53;;;20.21;58.83
80851;BME280;70268;50.292;6.666;2023-08-06T13:10:25;95757.81;;;20.33;58.83
80851;BME280;70268;50.292;6.666;2023-08-06T13:12:54;95761.84;;;20.29;58.51